createdAt,value
2018-02-16T00:01:20.875Z,79.94
2018-02-16T00:03:47.965Z,79.95
2018-02-16T00:06:15.289Z,80.17
2018-02-16T00:08:42.360Z,80.48
2018-02-16T00:11:09.423Z,80.37
2018-02-16T00:13:36.477Z,80.44
2018-02-16T00:16:03.615Z,80.59
2018-02-16T00:18:30.692Z,80.76
2018-02-16T00:20:57.785Z,80.60
2018-02-16T00:23:24.854Z,80.56
2018-02-16T00:25:51.924Z,80.61
2018-02-16T00:28:19.028Z,80.69
2018-02-16T00:30:46.033Z,80.55
2018-02-16T00:33:13.050Z,80.58
2018-02-16T00:35:40.114Z,80.46
2018-02-16T00:38:07.172Z,80.34
2018-02-16T00:40:34.231Z,80.11
2018-02-16T00:43:01.312Z,80.01
2018-02-16T00:45:28.359Z,80.08
2018-02-16T00:47:55.365Z,79.94
2018-02-16T00:50:22.321Z,80.03
2018-02-16T00:52:49.622Z,80.09
2018-02-16T00:55:16.747Z,80.20
2018-02-16T00:57:43.809Z,80.16
2018-02-16T01:00:10.847Z,80.20
2018-02-16T01:02:38.058Z,80.28
2018-02-16T01:05:05.061Z,80.27
2018-02-16T01:07:32.117Z,80.43
2018-02-16T01:09:59.183Z,80.64
2018-02-16T01:12:26.302Z,80.85
2018-02-16T01:14:53.408Z,81.30
2018-02-16T01:17:20.517Z,81.93
2018-02-16T01:19:47.573Z,82.30
2018-02-16T01:22:14.588Z,82.38
2018-02-16T01:24:41.791Z,82.21
2018-02-16T01:27:08.971Z,82.02
2018-02-16T01:29:36.030Z,82.06
2018-02-16T01:32:03.085Z,82.02
2018-02-16T01:34:30.155Z,82.22
2018-02-16T01:36:57.194Z,82.23
2018-02-16T01:39:24.224Z,82.07
2018-02-16T01:41:51.303Z,82.01
2018-02-16T01:44:18.387Z,81.95
2018-02-16T01:46:45.497Z,81.87
2018-02-16T01:49:12.510Z,81.98
2018-02-16T01:51:39.531Z,82.37
2018-02-16T01:54:06.677Z,82.65
2018-02-16T01:56:33.713Z,82.74
2018-02-16T01:59:00.739Z,82.53
2018-02-16T02:01:27.702Z,82.32
2018-02-16T02:03:54.766Z,82.25
2018-02-16T02:06:21.956Z,82.33
2018-02-16T02:08:48.990Z,82.45
2018-02-16T02:11:16.041Z,82.57
2018-02-16T02:13:43.133Z,82.47
2018-02-16T02:16:10.177Z,82.50
2018-02-16T02:18:37.400Z,82.50
2018-02-16T02:21:04.459Z,82.37
2018-02-16T02:23:31.482Z,82.17
2018-02-16T02:25:58.559Z,82.11
2018-02-16T02:28:25.922Z,82.10
2018-02-16T02:30:53.053Z,82.39
2018-02-16T02:33:20.682Z,82.63
2018-02-16T02:35:47.689Z,82.81
2018-02-16T02:38:14.711Z,82.80
2018-02-16T02:40:41.719Z,82.91
2018-02-16T02:43:08.732Z,83.38
2018-02-16T02:45:35.834Z,83.74
2018-02-16T02:48:02.834Z,83.92
2018-02-16T02:50:29.926Z,84.08
2018-02-16T02:52:57.007Z,84.08
2018-02-16T02:55:23.993Z,83.96
2018-02-16T02:57:51.245Z,83.72
2018-02-16T03:00:18.308Z,83.73
2018-02-16T03:02:45.412Z,83.71
2018-02-16T03:05:12.438Z,83.50
2018-02-16T03:07:39.485Z,83.41
2018-02-16T03:10:06.591Z,83.32
2018-02-16T03:12:33.879Z,83.30
2018-02-16T03:15:00.955Z,83.26
2018-02-16T03:17:28.085Z,83.13
2018-02-16T03:19:55.133Z,83.12
2018-02-16T03:22:22.233Z,83.14
2018-02-16T03:24:49.250Z,83.19
2018-02-16T03:27:16.573Z,83.32
2018-02-16T03:29:43.635Z,83.42
2018-02-16T03:32:10.667Z,83.31
2018-02-16T03:34:37.990Z,83.29
2018-02-16T03:37:05.066Z,83.32
2018-02-16T03:39:32.119Z,83.23
2018-02-16T03:41:59.450Z,83.29
2018-02-16T03:44:26.471Z,83.51
2018-02-16T03:46:53.552Z,83.65
2018-02-16T03:49:20.573Z,83.61
2018-02-16T03:51:47.587Z,83.56
2018-02-16T03:54:14.544Z,83.54
2018-02-16T03:56:41.863Z,83.79
2018-02-16T03:59:09.017Z,83.59
2018-02-16T04:01:36.131Z,83.65
2018-02-16T04:04:03.230Z,83.52
2018-02-16T04:06:30.241Z,83.61
2018-02-16T04:08:57.234Z,83.63
2018-02-16T04:11:24.338Z,83.75
2018-02-16T04:13:51.465Z,84.10
2018-02-16T04:16:18.564Z,84.01
2018-02-16T04:18:45.647Z,84.02
2018-02-16T04:21:12.734Z,84.08
2018-02-16T04:23:39.798Z,84.40
2018-02-16T04:26:06.819Z,84.59
2018-02-16T04:28:33.870Z,84.61
2018-02-16T04:31:00.893Z,84.49
2018-02-16T04:33:27.963Z,84.46
2018-02-16T04:35:55.023Z,84.60
2018-02-16T04:38:22.107Z,84.86
2018-02-16T04:40:49.213Z,84.81
2018-02-16T04:43:16.276Z,84.75
2018-02-16T04:45:43.426Z,84.66
2018-02-16T04:48:10.503Z,84.64
2018-02-16T04:50:37.595Z,84.49
2018-02-16T04:53:04.580Z,84.10
2018-02-16T04:55:31.611Z,84.04
2018-02-16T04:57:58.650Z,83.92
2018-02-16T05:00:25.750Z,84.05
2018-02-16T05:02:52.825Z,84.30
2018-02-16T05:05:19.908Z,84.37
2018-02-16T05:07:46.987Z,84.10
2018-02-16T05:10:14.062Z,83.90
2018-02-16T05:12:41.167Z,83.97
2018-02-16T05:15:08.212Z,83.92
2018-02-16T05:17:35.274Z,83.88
2018-02-16T05:20:02.324Z,83.88
2018-02-16T05:22:29.456Z,84.00
2018-02-16T05:24:56.530Z,84.05
2018-02-16T05:27:23.559Z,83.85
2018-02-16T05:29:50.542Z,83.91
2018-02-16T05:32:17.545Z,83.78
2018-02-16T05:34:44.567Z,83.70
2018-02-16T05:37:11.692Z,83.64
2018-02-16T05:39:38.724Z,83.64
2018-02-16T05:42:06.042Z,83.80
2018-02-16T05:44:33.109Z,84.05
2018-02-16T05:47:00.285Z,84.16
2018-02-16T05:49:27.367Z,83.95
2018-02-16T05:51:54.415Z,83.70
2018-02-16T05:54:21.455Z,83.69
2018-02-16T05:56:48.442Z,83.82
2018-02-16T05:59:15.573Z,83.94
2018-02-16T06:01:42.537Z,83.81
2018-02-16T06:04:09.675Z,83.81
2018-02-16T06:06:36.750Z,83.85
2018-02-16T06:09:03.915Z,84.03
2018-02-16T06:11:30.868Z,84.06
2018-02-16T06:13:57.949Z,84.09
2018-02-16T06:16:25.033Z,84.12
2018-02-16T06:18:52.127Z,83.91
2018-02-16T06:21:19.138Z,83.78
2018-02-16T06:23:46.158Z,83.61
2018-02-16T06:26:13.237Z,83.46
2018-02-16T06:28:40.297Z,83.31
2018-02-16T06:31:07.347Z,83.16
2018-02-16T06:33:35.552Z,83.04
2018-02-16T06:36:04.367Z,83.10
2018-02-16T06:38:31.407Z,83.17
2018-02-16T06:40:58.469Z,83.34
2018-02-16T06:43:25.528Z,83.55
2018-02-16T06:45:52.575Z,83.74
2018-02-16T06:48:19.696Z,83.71
2018-02-16T06:50:46.754Z,83.64
2018-02-16T06:53:13.826Z,83.55
2018-02-16T06:55:40.857Z,83.44
2018-02-16T06:58:07.893Z,83.49
2018-02-16T07:00:34.904Z,83.50
2018-02-16T07:03:01.980Z,83.58
2018-02-16T07:05:29.055Z,83.66
2018-02-16T07:07:56.159Z,83.61
2018-02-16T07:10:23.235Z,83.58
2018-02-16T07:12:50.272Z,83.70
2018-02-16T07:15:17.334Z,83.85
2018-02-16T07:17:45.220Z,84.04
2018-02-16T07:20:12.256Z,84.07
2018-02-16T07:22:39.327Z,83.88
2018-02-16T07:25:07.052Z,83.78
2018-02-16T07:27:34.109Z,83.34
2018-02-16T07:30:01.128Z,83.07
2018-02-16T07:32:28.201Z,82.96
2018-02-16T07:34:55.252Z,82.97
2018-02-16T07:37:22.299Z,83.05
2018-02-16T07:39:49.392Z,83.14
2018-02-16T07:42:16.913Z,82.98
2018-02-16T07:44:44.619Z,82.99
2018-02-16T07:47:11.660Z,82.90
2018-02-16T07:49:38.804Z,82.62
2018-02-16T07:52:05.821Z,82.36
2018-02-16T07:54:33.172Z,82.29
2018-02-16T07:57:00.285Z,82.09
2018-02-16T07:59:27.741Z,81.91
2018-02-16T08:01:54.829Z,81.74
2018-02-16T08:04:21.870Z,81.75
2018-02-16T08:06:48.939Z,81.47
2018-02-16T08:09:15.897Z,81.50
2018-02-16T08:11:43.213Z,81.29
2018-02-16T08:14:10.311Z,81.18
2018-02-16T08:16:37.403Z,81.10
2018-02-16T08:19:04.483Z,81.16
2018-02-16T08:21:31.508Z,80.94
2018-02-16T08:23:59.184Z,80.55
2018-02-16T08:26:26.349Z,80.35
2018-02-16T08:28:53.413Z,80.45
2018-02-16T08:31:20.517Z,80.83
2018-02-16T08:33:47.483Z,81.03
2018-02-16T08:36:15.145Z,81.15
2018-02-16T08:38:42.116Z,81.09
2018-02-16T08:41:09.158Z,81.20
2018-02-16T08:43:36.277Z,81.26
2018-02-16T08:46:03.466Z,81.33
2018-02-16T08:48:30.558Z,81.34
2018-02-16T08:50:57.643Z,81.13
2018-02-16T08:53:24.702Z,80.82
2018-02-16T08:55:51.757Z,80.39
2018-02-16T08:58:18.835Z,80.04
2018-02-16T09:00:45.811Z,80.08
2018-02-16T09:03:12.871Z,79.82
2018-02-16T09:05:39.844Z,79.51
2018-02-16T09:08:06.848Z,79.65
2018-02-16T09:10:33.897Z,79.94
2018-02-16T09:13:00.934Z,80.09
2018-02-16T09:15:27.970Z,80.56
2018-02-16T09:17:55.074Z,80.77
2018-02-16T09:20:22.162Z,80.42
2018-02-16T09:22:49.197Z,80.12
2018-02-16T09:25:16.280Z,80.27
2018-02-16T09:27:43.410Z,80.57
2018-02-16T09:30:10.503Z,80.70
2018-02-16T09:32:37.532Z,80.93
2018-02-16T09:35:04.578Z,80.74
2018-02-16T09:37:32.484Z,80.44
2018-02-16T09:40:00.579Z,80.20
2018-02-16T09:42:27.602Z,80.38
2018-02-16T09:44:54.675Z,80.36
2018-02-16T09:47:21.863Z,80.60
2018-02-16T09:49:48.900Z,80.83
2018-02-16T09:52:15.957Z,80.59
2018-02-16T09:54:43.079Z,80.56
2018-02-16T09:57:10.103Z,80.95
2018-02-16T09:59:37.160Z,80.52
2018-02-16T10:02:04.210Z,80.14
2018-02-16T10:04:31.225Z,80.12
2018-02-16T10:06:58.286Z,80.39
2018-02-16T10:09:25.398Z,80.36
2018-02-16T10:11:52.441Z,80.26
2018-02-16T10:14:19.556Z,79.69
2018-02-16T10:16:46.630Z,79.61
2018-02-16T10:19:13.652Z,79.59
2018-02-16T10:21:40.699Z,79.37
2018-02-16T10:24:07.792Z,79.09
2018-02-16T10:26:34.894Z,78.85
2018-02-16T10:29:02.109Z,78.01
2018-02-16T10:31:29.184Z,77.31
2018-02-16T10:33:56.231Z,76.17
2018-02-16T10:36:23.296Z,75.76
2018-02-16T10:38:50.375Z,75.84
2018-02-16T10:41:17.463Z,75.55
2018-02-16T10:43:44.463Z,75.86
2018-02-16T10:46:11.555Z,75.66
2018-02-16T10:48:39.235Z,75.93
2018-02-16T10:51:06.303Z,76.45
2018-02-16T10:53:33.399Z,77.00
2018-02-16T10:56:00.410Z,76.99
2018-02-16T10:58:27.499Z,77.04
2018-02-16T11:01:00.161Z,77.21
2018-02-16T11:03:32.920Z,77.44
2018-02-16T11:06:00.921Z,76.89
2018-02-16T11:08:33.563Z,75.85
2018-02-16T11:11:00.580Z,76.39
2018-02-16T11:13:27.664Z,76.45
2018-02-16T11:15:54.689Z,76.55
2018-02-16T11:18:21.755Z,76.17
2018-02-16T11:20:48.850Z,75.88
2018-02-16T11:23:15.900Z,75.59
2018-02-16T11:25:42.913Z,75.95
2018-02-16T11:28:09.988Z,76.03
2018-02-16T11:30:37.036Z,76.37
2018-02-16T11:33:04.680Z,75.83
2018-02-16T11:35:31.812Z,75.41
2018-02-16T11:37:58.948Z,75.60
2018-02-16T11:40:26.171Z,75.92
2018-02-16T11:42:53.242Z,76.02
2018-02-16T11:45:20.278Z,76.49
2018-02-16T11:47:47.372Z,76.87
2018-02-16T11:50:14.374Z,76.62
2018-02-16T11:52:41.454Z,76.36
2018-02-16T11:55:08.485Z,75.93
2018-02-16T11:57:35.652Z,75.80
2018-02-16T12:00:02.739Z,76.02
2018-02-16T12:02:29.858Z,76.41
2018-02-16T12:04:56.916Z,76.64
2018-02-16T12:07:23.969Z,76.68
2018-02-16T12:09:51.032Z,76.83
2018-02-16T12:12:18.031Z,77.27
2018-02-16T12:14:44.987Z,77.48
2018-02-16T12:17:12.024Z,77.45
2018-02-16T12:19:39.082Z,77.38
2018-02-16T12:22:06.095Z,77.20
2018-02-16T12:24:33.109Z,77.41
2018-02-16T12:27:00.203Z,77.57
2018-02-16T12:29:27.276Z,77.38
2018-02-16T12:31:54.301Z,77.26
2018-02-16T12:34:21.378Z,76.65
2018-02-16T12:36:48.715Z,76.52
2018-02-16T12:39:15.808Z,76.21
2018-02-16T12:41:42.956Z,75.79
2018-02-16T12:44:10.042Z,75.23
2018-02-16T12:46:37.067Z,75.49
2018-02-16T12:49:04.111Z,76.25
2018-02-16T12:51:31.113Z,76.54
2018-02-16T12:53:58.175Z,77.45
2018-02-16T12:56:25.250Z,78.48
2018-02-16T12:58:52.209Z,79.00
2018-02-16T13:01:19.316Z,79.04
2018-02-16T13:03:46.305Z,78.72
2018-02-16T13:06:13.375Z,78.66
2018-02-16T13:08:40.473Z,78.87
2018-02-16T13:11:07.521Z,78.70
2018-02-16T13:13:34.595Z,78.54
2018-02-16T13:16:01.632Z,78.08
2018-02-16T13:18:28.665Z,77.99
2018-02-16T13:20:55.731Z,78.40
2018-02-16T13:23:22.775Z,78.53
2018-02-16T13:25:49.775Z,78.56
2018-02-16T13:28:16.822Z,78.69
2018-02-16T13:30:43.874Z,78.90
2018-02-16T13:33:11.167Z,79.22
2018-02-16T13:35:38.130Z,79.14
2018-02-16T13:38:05.158Z,79.60
2018-02-16T13:40:32.235Z,80.07
2018-02-16T13:42:59.277Z,80.45
2018-02-16T13:45:26.355Z,80.51
2018-02-16T13:47:53.454Z,80.62
2018-02-16T13:50:20.738Z,80.73
2018-02-16T13:52:47.789Z,80.85
2018-02-16T13:55:14.912Z,80.88
2018-02-16T13:57:41.948Z,80.83
2018-02-16T14:00:08.943Z,80.86
2018-02-16T14:02:36.071Z,80.73
2018-02-16T14:05:03.190Z,81.09
2018-02-16T14:07:30.809Z,81.57
2018-02-16T14:09:57.856Z,81.94
2018-02-16T14:12:24.895Z,82.11
2018-02-16T14:14:51.922Z,81.99
2018-02-16T14:17:19.009Z,81.94
2018-02-16T14:19:46.009Z,81.82
2018-02-16T14:22:13.046Z,81.64
2018-02-16T14:24:40.093Z,81.46
2018-02-16T14:27:07.155Z,81.47
2018-02-16T14:29:34.214Z,81.55
2018-02-16T14:32:01.175Z,82.23
2018-02-16T14:34:28.197Z,82.63
2018-02-16T14:36:55.238Z,82.74
2018-02-16T14:39:22.302Z,82.69
2018-02-16T14:41:49.344Z,82.69
2018-02-16T14:44:16.434Z,82.70
2018-02-16T14:46:43.401Z,82.86
2018-02-16T14:49:10.370Z,82.94
2018-02-16T14:51:37.502Z,83.07
2018-02-16T14:54:04.598Z,83.32
2018-02-16T14:56:31.616Z,83.55
2018-02-16T14:58:58.716Z,83.73
2018-02-16T15:01:25.745Z,83.59
2018-02-16T15:03:52.808Z,83.48
2018-02-16T15:06:20.301Z,83.48
2018-02-16T15:08:47.361Z,83.54
2018-02-16T15:11:14.492Z,83.59
2018-02-16T15:13:42.234Z,83.84
2018-02-16T15:16:09.310Z,83.95
2018-02-16T15:18:36.378Z,84.16
2018-02-16T15:21:03.511Z,84.19
2018-02-16T15:23:30.599Z,84.05
2018-02-16T15:25:57.670Z,84.09
2018-02-16T15:28:24.699Z,83.97
2018-02-16T15:30:51.741Z,84.06
2018-02-16T15:33:18.814Z,84.28
2018-02-16T15:35:45.853Z,84.16
2018-02-16T15:38:12.869Z,84.49
2018-02-16T15:40:39.848Z,84.45
2018-02-16T15:43:06.894Z,84.55
2018-02-16T15:45:34.775Z,84.65
2018-02-16T15:48:01.788Z,84.57
2018-02-16T15:50:30.242Z,84.64
2018-02-16T15:52:57.285Z,84.53
2018-02-16T15:55:24.517Z,84.71
2018-02-16T15:57:51.685Z,84.70
2018-02-16T16:00:18.669Z,84.50
2018-02-16T16:02:45.713Z,84.83
2018-02-16T16:05:12.747Z,85.33
2018-02-16T16:07:39.815Z,85.46
2018-02-16T16:10:06.884Z,85.48
2018-02-16T16:12:33.940Z,85.32
2018-02-16T16:15:00.968Z,85.03
2018-02-16T16:17:27.979Z,84.88
2018-02-16T16:19:54.997Z,85.00
2018-02-16T16:22:22.029Z,85.14
2018-02-16T16:24:49.131Z,85.27
2018-02-16T16:27:16.207Z,85.68
2018-02-16T16:29:43.220Z,85.77
2018-02-16T16:32:10.340Z,85.74
2018-02-16T16:34:37.822Z,85.69
2018-02-16T16:37:04.868Z,85.69
2018-02-16T16:39:31.936Z,85.89
2018-02-16T16:41:59.003Z,85.81
2018-02-16T16:44:26.258Z,85.94
2018-02-16T16:46:53.263Z,85.87
2018-02-16T16:49:20.271Z,85.73
2018-02-16T16:51:47.311Z,85.60
2018-02-16T16:54:14.316Z,85.58
2018-02-16T16:56:41.383Z,85.60
2018-02-16T16:59:08.453Z,85.62
2018-02-16T17:01:35.549Z,85.54
2018-02-16T17:04:02.607Z,85.41
2018-02-16T17:06:29.656Z,85.51
2018-02-16T17:08:56.689Z,85.33
2018-02-16T17:11:23.844Z,85.44
2018-02-16T17:13:50.833Z,85.41
2018-02-16T17:16:17.822Z,85.27
2018-02-16T17:18:44.834Z,84.91
2018-02-16T17:21:12.133Z,84.41
2018-02-16T17:23:39.177Z,84.27
2018-02-16T17:26:06.224Z,84.16
2018-02-16T17:28:33.272Z,84.11
2018-02-16T17:31:00.334Z,84.05
2018-02-16T17:33:27.431Z,83.95
2018-02-16T17:35:54.439Z,83.70
2018-02-16T17:38:21.481Z,83.58
2018-02-16T17:40:48.713Z,83.33
2018-02-16T17:43:15.950Z,83.61
2018-02-16T17:45:43.057Z,83.62
2018-02-16T17:48:10.181Z,83.56
2018-02-16T17:50:37.330Z,83.54
2018-02-16T17:53:04.515Z,83.34
2018-02-16T17:55:31.561Z,83.11
2018-02-16T17:57:58.609Z,82.89
2018-02-16T18:00:25.591Z,82.86
2018-02-16T18:02:52.555Z,82.78
2018-02-16T18:05:19.590Z,82.92
2018-02-16T18:07:46.758Z,82.93
2018-02-16T18:10:13.806Z,82.71
2018-02-16T18:12:40.817Z,82.40
2018-02-16T18:15:07.881Z,82.29
2018-02-16T18:17:35.055Z,81.96
2018-02-16T18:20:02.099Z,81.75
2018-02-16T18:22:29.223Z,81.64
2018-02-16T18:24:56.396Z,81.43
2018-02-16T18:27:23.641Z,81.33
2018-02-16T18:29:50.898Z,81.29
2018-02-16T18:32:17.935Z,81.20
2018-02-16T18:34:44.961Z,81.14
2018-02-16T18:37:12.643Z,81.03
2018-02-16T18:39:39.659Z,81.15
2018-02-16T18:42:06.742Z,81.35
2018-02-16T18:44:34.257Z,81.37
2018-02-16T18:47:01.354Z,81.51
2018-02-16T18:49:29.138Z,81.60
2018-02-16T18:51:56.169Z,81.65
2018-02-16T18:54:23.222Z,81.53
2018-02-16T18:56:50.290Z,81.62
2018-02-16T18:59:17.365Z,81.66
2018-02-16T19:01:44.450Z,81.71
2018-02-16T19:04:11.538Z,81.78
2018-02-16T19:06:38.579Z,81.78
2018-02-16T19:09:05.581Z,81.85
2018-02-16T19:11:32.913Z,81.81
2018-02-16T19:14:00.805Z,81.91
2018-02-16T19:16:27.882Z,81.81
2018-02-16T19:18:54.906Z,81.73
2018-02-16T19:21:21.953Z,81.70
2018-02-16T19:23:49.071Z,81.77
2018-02-16T19:26:16.088Z,81.72
2018-02-16T19:28:43.127Z,81.60
2018-02-16T19:31:10.187Z,81.65
2018-02-16T19:33:37.222Z,81.87
2018-02-16T19:36:04.269Z,81.76
2018-02-16T19:38:31.287Z,81.69
2018-02-16T19:40:58.314Z,81.80
2018-02-16T19:43:25.303Z,81.70
2018-02-16T19:45:52.246Z,81.63
2018-02-16T19:48:19.208Z,81.69
2018-02-16T19:50:46.262Z,81.53
2018-02-16T19:53:14.077Z,81.61
2018-02-16T19:55:41.140Z,81.49
2018-02-16T19:58:08.206Z,81.51
2018-02-16T20:00:35.245Z,81.53
2018-02-16T20:03:02.289Z,81.56
2018-02-16T20:05:29.360Z,81.70
2018-02-16T20:07:56.530Z,81.57
2018-02-16T20:10:23.540Z,81.46
2018-02-16T20:12:50.537Z,81.45
2018-02-16T20:15:17.562Z,81.64
2018-02-16T20:17:44.610Z,81.66
2018-02-16T20:20:11.675Z,81.84
2018-02-16T20:22:38.756Z,81.98
2018-02-16T20:25:05.795Z,81.87
2018-02-16T20:27:32.806Z,82.00
2018-02-16T20:29:59.854Z,82.13
2018-02-16T20:32:26.877Z,82.09
2018-02-16T20:34:54.068Z,82.04
2018-02-16T20:37:21.090Z,82.01
2018-02-16T20:39:48.188Z,82.06
2018-02-16T20:42:15.215Z,82.08
2018-02-16T20:44:42.287Z,82.16
2018-02-16T20:47:09.342Z,82.32
2018-02-16T20:49:36.435Z,82.36
2018-02-16T20:52:03.499Z,82.30
2018-02-16T20:54:30.428Z,82.41
2018-02-16T20:56:57.513Z,82.52
2018-02-16T20:59:24.538Z,82.44
2018-02-16T21:01:51.632Z,82.46
2018-02-16T21:04:18.726Z,82.43
2018-02-16T21:06:45.771Z,82.39
2018-02-16T21:09:12.804Z,82.30
2018-02-16T21:11:39.883Z,82.42
2018-02-16T21:14:06.967Z,82.42
2018-02-16T21:16:34.055Z,82.29
2018-02-16T21:19:01.132Z,82.26
2018-02-16T21:21:28.222Z,82.26
2018-02-16T21:23:55.397Z,82.11
2018-02-16T21:26:22.475Z,82.20
2018-02-16T21:28:49.571Z,82.18
2018-02-16T21:31:16.643Z,82.27
2018-02-16T21:33:43.593Z,82.23
2018-02-16T21:36:10.664Z,82.14
2018-02-16T21:38:37.668Z,82.11
2018-02-16T21:41:04.663Z,82.00
2018-02-16T21:43:31.636Z,81.82
2018-02-16T21:45:58.690Z,81.98
2018-02-16T21:48:25.686Z,82.05
2018-02-16T21:50:52.701Z,81.99
2018-02-16T21:53:19.774Z,82.05
2018-02-16T21:55:46.825Z,81.95
2018-02-16T21:58:13.914Z,82.02
2018-02-16T22:00:41.015Z,82.00
2018-02-16T22:03:08.085Z,81.74
2018-02-16T22:05:35.128Z,81.65
2018-02-16T22:08:02.153Z,81.54
2018-02-16T22:10:29.258Z,81.18
2018-02-16T22:12:56.373Z,81.24
2018-02-16T22:15:23.492Z,81.23
2018-02-16T22:17:50.507Z,81.07
2018-02-16T22:20:18.422Z,80.95
2018-02-16T22:22:45.551Z,80.76
2018-02-16T22:25:12.643Z,80.72
2018-02-16T22:27:39.752Z,80.91
2018-02-16T22:30:06.806Z,80.71
2018-02-16T22:32:33.968Z,80.60
2018-02-16T22:35:00.995Z,80.53
2018-02-16T22:37:28.079Z,80.52
2018-02-16T22:39:55.085Z,80.43
2018-02-16T22:42:22.086Z,80.28
2018-02-16T22:44:49.104Z,80.14
2018-02-16T22:47:16.164Z,79.96
2018-02-16T22:49:43.148Z,79.70
2018-02-16T22:52:10.250Z,79.73
2018-02-16T22:54:37.311Z,79.69
2018-02-16T22:57:04.487Z,79.81
2018-02-16T22:59:31.546Z,79.88
2018-02-16T23:01:58.607Z,79.92
2018-02-16T23:04:25.578Z,80.08
2018-02-16T23:06:52.571Z,80.09
2018-02-16T23:09:19.857Z,79.88
2018-02-16T23:11:46.927Z,79.79
2018-02-16T23:14:13.953Z,79.81
2018-02-16T23:16:40.926Z,79.86
2018-02-16T23:19:07.928Z,80.05
2018-02-16T23:21:34.991Z,79.95
2018-02-16T23:24:02.279Z,80.17
2018-02-16T23:26:29.294Z,80.09
2018-02-16T23:28:56.333Z,80.15
2018-02-16T23:31:23.379Z,80.24
2018-02-16T23:33:50.348Z,80.43
2018-02-16T23:36:17.401Z,80.65
2018-02-16T23:38:44.445Z,80.77
2018-02-16T23:41:11.532Z,80.90
2018-02-16T23:43:39.125Z,80.96
2018-02-16T23:46:06.078Z,80.77
2018-02-16T23:48:33.149Z,80.86
2018-02-16T23:51:00.217Z,80.89
2018-02-16T23:53:27.239Z,80.78
2018-02-16T23:55:54.283Z,80.79
2018-02-16T23:58:21.585Z,81.04
